PWSweather.com
Personal Weather Stations
Station Observations
PARKVIEWX
Lake Worth Lake Charleston Parkview, Lake Worth, FL 33467

Lake Worth Lake Charleston ParkviewLake Worth, FL 33467

Lat: 26.565627, Lon: -80.162068

Elevation: 33

Station Type: Davis Vantage Pro 2

Latest ConditionsUpdated 1:16:51 AM EDT Thursday, Jun 27, 2019
Currently Today's Max Today's Min Today's Average
Temperature 79.3°F26.3°C 79.3°F26.3°C 79.0°F26.1°C 79.2°F26.2°C
Dew Point 75.2°F24.0°C 75.2°F24.0°C 74.1°F23.4°C 74.7°F23.7°C
Winds 2.0 mph NW3.2 kmh NW 2.9 mph -4.7 kmh - - 2.0 mph 3.2 kmh
Wind Gusts 2.9 mph4.7 kmh 6.0 mph9.7 kmh - -
Humidity 87% 87% 85% 86%
Pressure 30.11 in1019.6 mb 30.13 in1020.3 mb 30.11 in1019.6 mb -
Hour Temp Dew Point Humidity Winds Wind Gusts Pressure Precip Precip Rate Daily Precip Total
01:16 AM 79.3°F26.3°C 75.2°F24.0°C 87% 2.0 mph NW3.2 kmh NW 2.9 mph4.7 kmh 30.11 in1019.6 mb 0.00 in0.0 mm 0.00 in0.0 mm 0.00 in0.0 mm
01:15 AM 79.3°F26.3°C 75.2°F24.0°C 87% 2.0 mph NW3.2 kmh NW 2.9 mph4.7 kmh 30.11 in1019.6 mb 0.00 in0.0 mm 0.00 in0.0 mm 0.00 in0.0 mm
01:14 AM 79.3°F26.3°C 75.2°F24.0°C 87% 2.0 mph NW3.2 kmh NW 2.9 mph4.7 kmh 30.11 in1019.6 mb 0.00 in0.0 mm 0.00 in0.0 mm 0.00 in0.0 mm
01:13 AM 79.3°F26.3°C 75.2°F24.0°C 87% 2.0 mph NW3.2 kmh NW 2.9 mph4.7 kmh 30.11 in1019.6 mb 0.00 in0.0 mm 0.00 in0.0 mm 0.00 in0.0 mm
01:12 AM 79.3°F26.3°C 75.2°F24.0°C 87% 2.0 mph NW3.2 kmh NW 2.0 mph3.2 kmh 30.11 in1019.6 mb 0.00 in0.0 mm 0.00 in0.0 mm 0.00 in0.0 mm
01:11 AM 79.3°F26.3°C 75.2°F24.0°C 87% 2.0 mph NW3.2 kmh NW 2.9 mph4.7 kmh 30.11 in1019.6 mb 0.00 in0.0 mm 0.00 in0.0 mm 0.00 in0.0 mm
01:10 AM 79.3°F26.3°C 75.2°F24.0°C 87% 2.0 mph NW3.2 kmh NW 2.9 mph4.7 kmh 30.11 in1019.6 mb 0.00 in0.0 mm 0.00 in0.0 mm 0.00 in0.0 mm
01:09 AM 79.3°F26.3°C 75.2°F24.0°C 87% 2.0 mph NW3.2 kmh NW 2.9 mph4.7 kmh 30.11 in1019.6 mb 0.00 in0.0 mm 0.00 in0.0 mm 0.00 in0.0 mm
01:08 AM 79.3°F26.3°C 75.2°F24.0°C 87% 2.0 mph NW3.2 kmh NW 2.9 mph4.7 kmh 30.11 in1019.6 mb 0.00 in0.0 mm 0.00 in0.0 mm 0.00 in0.0 mm
01:07 AM 79.3°F26.3°C 75.2°F24.0°C 87% 2.0 mph NW3.2 kmh NW 2.9 mph4.7 kmh 30.11 in1019.6 mb 0.00 in0.0 mm 0.00 in0.0 mm 0.00 in0.0 mm
01:06 AM 79.3°F26.3°C 75.2°F24.0°C 87% 0.9 mph NW1.4 kmh NW 2.9 mph4.7 kmh 30.11 in1019.6 mb 0.00 in0.0 mm 0.00 in0.0 mm 0.00 in0.0 mm
01:05 AM 79.3°F26.3°C 75.2°F24.0°C 87% 0.9 mph NW1.4 kmh NW 2.9 mph4.7 kmh 30.11 in1019.6 mb 0.00 in0.0 mm 0.00 in0.0 mm 0.00 in0.0 mm
01:04 AM 79.3°F26.3°C 75.2°F24.0°C 87% 0.9 mph NW1.4 kmh NW 2.0 mph3.2 kmh 30.11 in1019.6 mb 0.00 in0.0 mm 0.00 in0.0 mm 0.00 in0.0 mm
01:03 AM 79.3°F26.3°C 75.2°F24.0°C 87% 0.9 mph NW1.4 kmh NW 0.9 mph1.4 kmh 30.11 in1019.6 mb 0.00 in0.0 mm 0.00 in0.0 mm 0.00 in0.0 mm
01:02 AM 79.3°F26.3°C 75.2°F24.0°C 87% 0.9 mph NW1.4 kmh NW 2.0 mph3.2 kmh 30.11 in1019.6 mb 0.00 in0.0 mm 0.00 in0.0 mm 0.00 in0.0 mm
01:01 AM 79.2°F26.2°C 75.0°F23.9°C 87% 2.0 mph NW3.2 kmh NW 2.0 mph3.2 kmh 30.11 in1019.6 mb 0.00 in0.0 mm 0.00 in0.0 mm 0.00 in0.0 mm
01:00 AM 79.3°F26.3°C 75.2°F24.0°C 87% 2.0 mph NW3.2 kmh NW 2.0 mph3.2 kmh 30.11 in1019.6 mb 0.00 in0.0 mm 0.00 in0.0 mm 0.00 in0.0 mm
12:59 AM 79.2°F26.2°C 74.7°F23.7°C 86% 2.0 mph NW3.2 kmh NW 2.9 mph4.7 kmh 30.11 in1019.6 mb 0.00 in0.0 mm 0.00 in0.0 mm 0.00 in0.0 mm
12:58 AM 79.2°F26.2°C 74.7°F23.7°C 86% 2.0 mph NW3.2 kmh NW 2.9 mph4.7 kmh 30.11 in1019.6 mb 0.00 in0.0 mm 0.00 in0.0 mm 0.00 in0.0 mm
12:57 AM 79.2°F26.2°C 74.7°F23.7°C 86% 2.0 mph NW3.2 kmh NW 2.0 mph3.2 kmh 30.11 in1019.6 mb 0.00 in0.0 mm 0.00 in0.0 mm 0.00 in0.0 mm
12:56 AM 79.2°F26.2°C 74.7°F23.7°C 86% 2.0 mph NW3.2 kmh NW 0.9 mph1.4 kmh 30.11 in1019.6 mb 0.00 in0.0 mm 0.00 in0.0 mm 0.00 in0.0 mm
12:55 AM 79.2°F26.2°C 74.7°F23.7°C 86% 2.0 mph NW3.2 kmh NW 2.0 mph3.2 kmh 30.11 in1019.6 mb 0.00 in0.0 mm 0.00 in0.0 mm 0.00 in0.0 mm
12:54 AM 79.2°F26.2°C 74.7°F23.7°C 86% 2.0 mph NW3.2 kmh NW 2.9 mph4.7 kmh 30.11 in1019.6 mb 0.00 in0.0 mm 0.00 in0.0 mm 0.00 in0.0 mm
12:53 AM 79.2°F26.2°C 74.7°F23.7°C 86% 2.0 mph NW3.2 kmh NW 2.9 mph4.7 kmh 30.11 in1019.6 mb 0.00 in0.0 mm 0.00 in0.0 mm 0.00 in0.0 mm
12:52 AM 79.2°F26.2°C 74.7°F23.7°C 86% 2.0 mph NW3.2 kmh NW 2.9 mph4.7 kmh 30.11 in1019.6 mb 0.00 in0.0 mm 0.00 in0.0 mm 0.00 in0.0 mm
12:51 AM 79.2°F26.2°C 74.7°F23.7°C 86% 0.9 mph NW1.4 kmh NW 2.0 mph3.2 kmh 30.11 in1019.6 mb 0.00 in0.0 mm 0.00 in0.0 mm 0.00 in0.0 mm
12:50 AM 79.2°F26.2°C 74.7°F23.7°C 86% 0.9 mph NW1.4 kmh NW 2.9 mph4.7 kmh 30.11 in1019.6 mb 0.00 in0.0 mm 0.00 in0.0 mm 0.00 in0.0 mm
12:49 AM 79.2°F26.2°C 74.7°F23.7°C 86% 0.9 mph NW1.4 kmh NW 2.9 mph4.7 kmh 30.11 in1019.6 mb 0.00 in0.0 mm 0.00 in0.0 mm 0.00 in0.0 mm
12:48 AM 79.2°F26.2°C 74.7°F23.7°C 86% 0.9 mph NW1.4 kmh NW 2.9 mph4.7 kmh 30.12 in1020.0 mb 0.00 in0.0 mm 0.00 in0.0 mm 0.00 in0.0 mm
12:47 AM 79.2°F26.2°C 74.7°F23.7°C 86% 0.9 mph NW1.4 kmh NW 2.0 mph3.2 kmh 30.12 in1020.0 mb 0.00 in0.0 mm 0.00 in0.0 mm 0.00 in0.0 mm
12:46 AM 79.2°F26.2°C 74.7°F23.7°C 86% 0.9 mph NW1.4 kmh NW 2.0 mph3.2 kmh 30.12 in1020.0 mb 0.00 in0.0 mm 0.00 in0.0 mm 0.00 in0.0 mm
12:45 AM 79.2°F26.2°C 74.7°F23.7°C 86% 0.9 mph NW1.4 kmh NW 3.0 mph4.8 kmh 30.12 in1020.0 mb 0.00 in0.0 mm 0.00 in0.0 mm 0.00 in0.0 mm
12:44 AM 79.2°F26.2°C 74.7°F23.7°C 86% 0.9 mph NW1.4 kmh NW 2.0 mph3.2 kmh 30.12 in1020.0 mb 0.00 in0.0 mm 0.00 in0.0 mm 0.00 in0.0 mm
12:43 AM 79.2°F26.2°C 74.7°F23.7°C 86% 0.9 mph NW1.4 kmh NW 2.0 mph3.2 kmh 30.12 in1020.0 mb 0.00 in0.0 mm 0.00 in0.0 mm 0.00 in0.0 mm
12:42 AM 79.2°F26.2°C 74.7°F23.7°C 86% 2.0 mph NW3.2 kmh NW 2.0 mph3.2 kmh 30.12 in1020.0 mb 0.00 in0.0 mm 0.00 in0.0 mm 0.00 in0.0 mm
12:41 AM 79.2°F26.2°C 74.7°F23.7°C 86% 2.0 mph NW3.2 kmh NW 2.0 mph3.2 kmh 30.12 in1020.0 mb 0.00 in0.0 mm 0.00 in0.0 mm 0.00 in0.0 mm
12:40 AM 79.2°F26.2°C 74.7°F23.7°C 86% 2.0 mph NW3.2 kmh NW 2.0 mph3.2 kmh 30.12 in1020.0 mb 0.00 in0.0 mm 0.00 in0.0 mm 0.00 in0.0 mm
12:39 AM 79.2°F26.2°C 74.7°F23.7°C 86% 2.0 mph NW3.2 kmh NW 2.0 mph3.2 kmh 30.12 in1020.0 mb 0.00 in0.0 mm 0.00 in0.0 mm 0.00 in0.0 mm
12:38 AM 79.2°F26.2°C 74.7°F23.7°C 86% 2.0 mph NW3.2 kmh NW 2.0 mph3.2 kmh 30.12 in1020.0 mb 0.00 in0.0 mm 0.00 in0.0 mm 0.00 in0.0 mm
12:37 AM 79.2°F26.2°C 74.7°F23.7°C 86% 2.0 mph NW3.2 kmh NW 2.0 mph3.2 kmh 30.12 in1020.0 mb 0.00 in0.0 mm 0.00 in0.0 mm 0.00 in0.0 mm
12:36 AM 79.2°F26.2°C 74.7°F23.7°C 86% 2.0 mph NW3.2 kmh NW 2.0 mph3.2 kmh 30.12 in1020.0 mb 0.00 in0.0 mm 0.00 in0.0 mm 0.00 in0.0 mm
12:35 AM 79.2°F26.2°C 74.7°F23.7°C 86% 2.0 mph NW3.2 kmh NW 2.9 mph4.7 kmh 30.12 in1020.0 mb 0.00 in0.0 mm 0.00 in0.0 mm 0.00 in0.0 mm
12:34 AM 79.2°F26.2°C 74.7°F23.7°C 86% 2.0 mph NW3.2 kmh NW 2.9 mph4.7 kmh 30.12 in1020.0 mb 0.00 in0.0 mm 0.00 in0.0 mm 0.00 in0.0 mm
12:33 AM 79.2°F26.2°C 74.7°F23.7°C 86% 2.0 mph NW3.2 kmh NW 2.9 mph4.7 kmh 30.13 in1020.3 mb 0.00 in0.0 mm 0.00 in0.0 mm 0.00 in0.0 mm
12:32 AM 79.2°F26.2°C 74.7°F23.7°C 86% 2.0 mph NW3.2 kmh NW 2.9 mph4.7 kmh 30.13 in1020.3 mb 0.00 in0.0 mm 0.00 in0.0 mm 0.00 in0.0 mm
12:31 AM 79.2°F26.2°C 74.7°F23.7°C 86% 2.0 mph NW3.2 kmh NW 2.9 mph4.7 kmh 30.12 in1020.0 mb 0.00 in0.0 mm 0.00 in0.0 mm 0.00 in0.0 mm
12:30 AM 79.2°F26.2°C 74.7°F23.7°C 86% 2.0 mph NW3.2 kmh NW 2.9 mph4.7 kmh 30.13 in1020.3 mb 0.00 in0.0 mm 0.00 in0.0 mm 0.00 in0.0 mm
12:29 AM 79.0°F26.1°C 74.5°F23.6°C 86% 2.0 mph NW3.2 kmh NW 2.9 mph4.7 kmh 30.13 in1020.3 mb 0.00 in0.0 mm 0.00 in0.0 mm 0.00 in0.0 mm
12:28 AM 79.0°F26.1°C 74.5°F23.6°C 86% 2.0 mph NW3.2 kmh NW 2.0 mph3.2 kmh 30.13 in1020.3 mb 0.00 in0.0 mm 0.00 in0.0 mm 0.00 in0.0 mm
12:27 AM 79.0°F26.1°C 74.1°F23.4°C 85% 2.0 mph NW3.2 kmh NW 2.9 mph4.7 kmh 30.13 in1020.3 mb 0.00 in0.0 mm 0.00 in0.0 mm 0.00 in0.0 mm
12:26 AM 79.0°F26.1°C 74.1°F23.4°C 85% 2.0 mph NW3.2 kmh NW 2.9 mph4.7 kmh 30.12 in1020.0 mb 0.00 in0.0 mm 0.00 in0.0 mm 0.00 in0.0 mm
12:25 AM 79.0°F26.1°C 74.1°F23.4°C 85% 2.0 mph NW3.2 kmh NW 2.0 mph3.2 kmh 30.12 in1020.0 mb 0.00 in0.0 mm 0.00 in0.0 mm 0.00 in0.0 mm
12:24 AM 79.0°F26.1°C 74.1°F23.4°C 85% 2.0 mph NW3.2 kmh NW 2.9 mph4.7 kmh 30.12 in1020.0 mb 0.00 in0.0 mm 0.00 in0.0 mm 0.00 in0.0 mm
12:23 AM 79.0°F26.1°C 74.1°F23.4°C 85% 2.0 mph NW3.2 kmh NW 2.0 mph3.2 kmh 30.13 in1020.3 mb 0.00 in0.0 mm 0.00 in0.0 mm 0.00 in0.0 mm
12:22 AM 79.2°F26.2°C 74.7°F23.7°C 86% 2.0 mph NW3.2 kmh NW 2.0 mph3.2 kmh 30.13 in1020.3 mb 0.00 in0.0 mm 0.00 in0.0 mm 0.00 in0.0 mm
12:21 AM 79.2°F26.2°C 74.7°F23.7°C 86% 2.0 mph NW3.2 kmh NW 2.0 mph3.2 kmh 30.12 in1020.0 mb 0.00 in0.0 mm 0.00 in0.0 mm 0.00 in0.0 mm
12:20 AM 79.2°F26.2°C 74.7°F23.7°C 86% 2.0 mph NW3.2 kmh NW 2.0 mph3.2 kmh 30.13 in1020.3 mb 0.00 in0.0 mm 0.00 in0.0 mm 0.00 in0.0 mm
12:19 AM 79.2°F26.2°C 74.7°F23.7°C 86% 2.0 mph NW3.2 kmh NW 2.0 mph3.2 kmh 30.13 in1020.3 mb 0.00 in0.0 mm 0.00 in0.0 mm 0.00 in0.0 mm
12:18 AM 79.2°F26.2°C 74.7°F23.7°C 86% 2.0 mph NW3.2 kmh NW 2.0 mph3.2 kmh 30.13 in1020.3 mb 0.00 in0.0 mm 0.00 in0.0 mm 0.00 in0.0 mm
12:17 AM 79.2°F26.2°C 74.7°F23.7°C 86% 2.0 mph NW3.2 kmh NW 2.0 mph3.2 kmh 30.13 in1020.3 mb 0.00 in0.0 mm 0.00 in0.0 mm 0.00 in0.0 mm
12:16 AM 79.2°F26.2°C 74.7°F23.7°C 86% 2.0 mph NW3.2 kmh NW 5.0 mph8.0 kmh 30.13 in1020.3 mb 0.00 in0.0 mm 0.00 in0.0 mm 0.00 in0.0 mm
12:15 AM 79.2°F26.2°C 74.7°F23.7°C 86% 2.9 mph NW4.7 kmh NW 5.0 mph8.0 kmh 30.13 in1020.3 mb 0.00 in0.0 mm 0.00 in0.0 mm 0.00 in0.0 mm
12:14 AM 79.2°F26.2°C 74.7°F23.7°C 86% 2.9 mph NW4.7 kmh NW 2.9 mph4.7 kmh 30.13 in1020.3 mb 0.00 in0.0 mm 0.00 in0.0 mm 0.00 in0.0 mm
12:13 AM 79.2°F26.2°C 74.7°F23.7°C 86% 2.9 mph NW4.7 kmh NW 2.9 mph4.7 kmh 30.12 in1020.0 mb 0.00 in0.0 mm 0.00 in0.0 mm 0.00 in0.0 mm
12:12 AM 79.2°F26.2°C 74.7°F23.7°C 86% 2.9 mph NW4.7 kmh NW 2.9 mph4.7 kmh 30.13 in1020.3 mb 0.00 in0.0 mm 0.00 in0.0 mm 0.00 in0.0 mm
12:11 AM 79.2°F26.2°C 74.7°F23.7°C 86% 2.9 mph NW4.7 kmh NW 4.0 mph6.4 kmh 30.13 in1020.3 mb 0.00 in0.0 mm 0.00 in0.0 mm 0.00 in0.0 mm
12:10 AM 79.2°F26.2°C 74.7°F23.7°C 86% 2.9 mph NW4.7 kmh NW 4.0 mph6.4 kmh 30.13 in1020.3 mb 0.00 in0.0 mm 0.00 in0.0 mm 0.00 in0.0 mm
12:09 AM 79.2°F26.2°C 74.7°F23.7°C 86% 2.9 mph NW4.7 kmh NW 2.9 mph4.7 kmh 30.13 in1020.3 mb 0.00 in0.0 mm 0.00 in0.0 mm 0.00 in0.0 mm
12:08 AM 79.2°F26.2°C 74.7°F23.7°C 86% 2.9 mph NW4.7 kmh NW 4.0 mph6.4 kmh 30.13 in1020.3 mb 0.00 in0.0 mm 0.00 in0.0 mm 0.00 in0.0 mm
12:07 AM 79.2°F26.2°C 74.7°F23.7°C 86% 2.9 mph NW4.7 kmh NW 4.0 mph6.4 kmh 30.13 in1020.3 mb 0.00 in0.0 mm 0.00 in0.0 mm 0.00 in0.0 mm
12:06 AM 79.2°F26.2°C 74.3°F23.5°C 85% 2.9 mph NW4.7 kmh NW 6.0 mph9.7 kmh 30.13 in1020.3 mb 0.00 in0.0 mm 0.00 in0.0 mm 0.00 in0.0 mm
12:05 AM 79.2°F26.2°C 74.3°F23.5°C 85% 2.9 mph NW4.7 kmh NW 6.0 mph9.7 kmh 30.13 in1020.3 mb 0.00 in0.0 mm 0.00 in0.0 mm 0.00 in0.0 mm
12:04 AM 79.2°F26.2°C 74.3°F23.5°C 85% 2.9 mph NW4.7 kmh NW 4.0 mph6.4 kmh 30.13 in1020.3 mb 0.00 in0.0 mm 0.00 in0.0 mm 0.00 in0.0 mm
12:03 AM 79.3°F26.3°C 74.5°F23.6°C 85% 2.9 mph W4.7 kmh W 2.9 mph4.7 kmh 30.13 in1020.3 mb 0.00 in0.0 mm 0.00 in0.0 mm 0.00 in0.0 mm
12:02 AM 79.3°F26.3°C 74.5°F23.6°C 85% 2.9 mph W4.7 kmh W 4.0 mph6.4 kmh 30.13 in1020.3 mb 0.00 in0.0 mm 0.00 in0.0 mm 0.00 in0.0 mm
12:01 AM 79.3°F26.3°C 74.5°F23.6°C 85% 2.9 mph W4.7 kmh W 2.9 mph4.7 kmh 30.13 in1020.3 mb 0.00 in0.0 mm 0.00 in0.0 mm 0.00 in0.0 mm
12:00 AM 79.3°F26.3°C 74.5°F23.6°C 85% 2.9 mph W4.7 kmh W 2.9 mph4.7 kmh 30.13 in1020.3 mb 0.00 in0.0 mm 0.00 in0.0 mm 0.00 in0.0 mm